首页
METAR-TAF:

METAR-TAF

机场 :

Newport News/Williamsburg International Airport

紐波特紐斯, 弗吉尼亚州, 美国

纬度: 37-07-55N, 经度: 076-29-35W, 海拔: 13米

当前天气观测

该预报发布于15分钟前的02:54 UTC
风速6节,风向东北
温度 24°C
湿度 94%
气压 1020 hPa
能見度: 16.1公里
天空无云

METAR: KPHF 170254Z 04006KT 10SM CLR 24/23 A3011 RMK AO2 SLP194 T02390228 50006

时间: 23:09 (03:09 UTC)

预报

该预报发布于2小时和53分钟前的00:16 UTC
预报有效从17日的 00点(UTC)到 17日的 24点(UTC)
风速7节,风向东转东北
能見度: 10公里
散云层高于1500英尺
多云层高于15000英尺
短暂存在
从 17日的 00点(UTC)到 17日的 04点(UTC)
多云层高于1500英尺
从 17日的 0400点(UTC)
风速7节,风向东转东北
能見度: 10公里
多云层高于1500英尺
从 17日的 0600点(UTC)
风速7节,风向东北
能見度: 10公里
多云层高于1000英尺
附近有阵雨
从 17日的 1100点(UTC)
风速10节,风向北转东北
能見度: 10公里
阴天层高于800英尺
附近有阵雨
从 17日的 1500点(UTC)
风速12节,风向北转东北,有时为20节阵风
能見度: 10公里
多云层高于1000英尺
附近有阵雨

TAF: KPHF 170016Z 1700/1724 07007KT P6SM SCT015 BKN150 TEMPO 1700/1704 BKN015 FM170400 06007KT P6SM BKN015 FM170600 04007KT P6SM VCSH BKN010 FM171100 03010KT P6SM VCSH OVC008 FM171500 03012G20KT P6SM VCSH BKN010

超过4000个机场的气象观测和天气预报(METAR&TAF报告)。

可查询的气象台以黄色和红色小点在地图上表示。

将鼠标移到小点上方,可查看气象台名称。

然后点击查看天气观测和预报。

如需切换地图:点击带黑十字的绿色按钮放大地图;点击带横线的绿色按钮缩小地图;或者点击绿色箭头查看邻近地区的地图。


METAR-TAF: